Time;durP1;ratioP1;P1;durP2;ratioP2;P2;SDS_P1;SDS_P2;PMS_P1;PMS_P2;Temp;Humidity;BMP_temperature;BMP_pressure;BME280_temperature;BME280_humidity;BME280_pressure;Samples;Min_cycle;Max_cycle;Signal;HPM_P1;HPM_P2
2022/06/07 00:00:46;;;;;;;10.82;2.70;;;27.20;63.40;;;;;;5153534;27;20030;-72
2022/06/07 00:03:12;;;;;;;8.77;2.22;;;27.20;63.20;;;;;;5153427;27;20019;-72
2022/06/07 00:05:41;;;;;;;15.80;2.42;;;27.10;63.30;;;;;;5153338;27;20516;-73
2022/06/07 00:08:07;;;;;;;21.02;2.80;;;27.10;63.40;;;;;;5153513;27;20030;-73
2022/06/07 00:10:34;;;;;;;12.65;2.42;;;27.20;63.50;;;;;;5153580;27;20023;-72
2022/06/07 00:13:00;;;;;;;10.57;2.47;;;27.10;63.70;;;;;;5153438;27;20105;-73
2022/06/07 00:15:26;;;;;;;8.57;2.00;;;27.00;63.70;;;;;;5153300;27;20018;-72
2022/06/07 00:17:52;;;;;;;10.65;2.40;;;27.00;63.80;;;;;;5153112;27;20030;-72
2022/06/07 00:20:19;;;;;;;9.10;2.33;;;27.00;63.70;;;;;;5153052;27;20030;-72
2022/06/07 00:22:46;;;;;;;9.27;2.53;;;27.00;63.80;;;;;;5152900;27;20454;-72
2022/06/07 00:25:13;;;;;;;12.27;2.78;;;27.00;63.60;;;;;;5153134;27;20406;-72
2022/06/07 00:27:42;;;;;;;10.60;2.50;;;26.90;63.60;;;;;;5152843;27;20050;-72
2022/06/07 00:30:09;;;;;;;10.80;2.17;;;26.90;63.80;;;;;;5152944;27;20023;-72
2022/06/07 00:32:36;;;;;;;8.30;2.20;;;26.90;63.70;;;;;;5152974;27;20420;-72
2022/06/07 00:35:02;;;;;;;9.43;2.75;;;26.90;63.70;;;;;;5152922;27;20050;-70
2022/06/07 00:37:29;;;;;;;8.88;2.25;;;26.80;64.10;;;;;;5152470;27;20057;-71
2022/06/07 00:39:55;;;;;;;6.97;2.63;;;26.80;63.70;;;;;;5153245;27;20380;-72
2022/06/07 00:42:21;;;;;;;9.38;2.50;;;26.80;63.90;;;;;;5152800;27;20106;-72
2022/06/07 00:44:48;;;;;;;9.27;2.30;;;26.80;63.70;;;;;;5153092;27;20098;-72
2022/06/07 00:47:23;;;;;;;;;;;26.80;63.50;;;;;;5153422;27;20039;-72
2022/06/07 00:49:52;;;;;;;8.93;2.37;;;26.80;63.40;;;;;;5157102;27;19914;-72
2022/06/07 00:52:20;;;;;;;6.32;1.95;;;26.70;63.40;;;;;;5157193;27;20022;-72
2022/06/07 00:54:46;;;;;;;6.63;1.98;;;26.60;63.60;;;;;;5156668;27;20404;-72
2022/06/07 00:57:13;;;;;;;8.32;2.10;;;26.60;63.50;;;;;;5156685;27;20030;-72
2022/06/07 00:59:40;;;;;;;6.68;2.13;;;26.60;63.60;;;;;;5156698;27;20079;-72
2022/06/07 01:02:07;;;;;;;7.07;2.00;;;26.60;63.30;;;;;;5156432;27;20101;-71
2022/06/07 01:04:33;;;;;;;10.93;2.03;;;26.50;63.10;;;;;;5156788;27;20031;-71
2022/06/07 01:12:30;;;;;;;7.22;1.95;;;26.50;62.50;;;;;;5156536;27;20065;-72
2022/06/07 01:14:56;;;;;;;7.60;2.00;;;26.60;62.50;;;;;;5156300;27;20022;-72
2022/06/07 01:17:22;;;;;;;12.38;2.20;;;26.50;62.20;;;;;;5156631;27;20031;-72
2022/06/07 01:19:48;;;;;;;8.05;2.47;;;26.60;62.60;;;;;;5156291;27;20094;-72
2022/06/07 01:22:15;;;;;;;7.97;2.10;;;26.50;62.60;;;;;;5155916;27;20026;-72
2022/06/07 01:24:41;;;;;;;9.77;1.85;;;26.50;62.80;;;;;;5156140;27;20104;-72
2022/06/07 01:27:08;;;;;;;9.00;2.30;;;26.50;63.00;;;;;;5156096;27;20111;-72
2022/06/07 01:29:36;;;;;;;13.15;2.30;;;26.50;63.10;;;;;;5155955;27;20097;-72
2022/06/07 01:32:04;;;;;;;8.52;2.42;;;26.50;63.30;;;;;;5155949;27;20037;-72
2022/06/07 01:34:31;;;;;;;8.02;2.10;;;26.40;63.60;;;;;;5156159;27;20015;-72
2022/06/07 01:36:59;;;;;;;8.85;2.28;;;26.40;63.70;;;;;;5155814;27;20554;-72
2022/06/07 01:42:12;;;;;;;8.47;1.80;;;26.40;63.80;;;;;;5156027;27;20399;-72
2022/06/07 01:44:47;;;;;;;9.10;1.83;;;26.50;63.70;;;;;;5155560;27;20430;-72
2022/06/07 01:47:15;;;;;;;7.93;2.10;;;26.40;63.90;;;;;;5155876;27;20038;-72
2022/06/07 01:49:42;;;;;;;8.70;2.50;;;26.40;64.00;;;;;;5154303;27;20029;-72
2022/06/07 01:52:09;;;;;;;6.90;1.90;;;26.40;63.80;;;;;;5155811;27;20031;-72
2022/06/07 01:54:35;;;;;;;8.93;2.17;;;26.30;63.90;;;;;;5155845;27;20023;-71
2022/06/07 01:57:01;;;;;;;7.95;2.08;;;26.30;63.90;;;;;;5155559;27;20034;-71
2022/06/07 01:59:27;;;;;;;15.98;2.45;;;26.30;63.70;;;;;;5155080;27;20031;-72
2022/06/07 02:01:54;;;;;;;6.40;2.10;;;26.30;63.70;;;;;;5155691;27;20027;-72
2022/06/07 02:04:21;;;;;;;8.43;2.42;;;26.30;63.70;;;;;;5155641;27;20022;-72
2022/06/07 02:06:49;;;;;;;8.13;2.20;;;26.30;64.10;;;;;;5155045;27;20214;-71
2022/06/07 02:09:16;;;;;;;9.27;2.10;;;26.20;64.10;;;;;;5155172;27;20023;-72
2022/06/07 02:11:44;;;;;;;7.30;2.20;;;26.20;64.10;;;;;;5155002;27;20335;-71
2022/06/07 02:14:11;;;;;;;10.07;2.47;;;26.20;64.40;;;;;;5155143;27;20015;-71
2022/06/07 02:16:38;;;;;;;7.57;2.03;;;26.20;64.40;;;;;;5155623;27;20465;-72
2022/06/07 02:19:05;;;;;;;9.93;2.00;;;26.10;64.50;;;;;;5153793;27;20419;-71
2022/06/07 02:21:31;;;;;;;7.63;1.95;;;26.10;64.40;;;;;;5153498;27;20050;-71
2022/06/07 02:23:57;;;;;;;;;;;26.00;64.60;;;;;;5155433;27;20045;-72
2022/06/07 02:26:55;;;;;;;16.45;2.55;;;26.00;64.50;;;;;;5154753;27;19907;-71
2022/06/07 02:29:40;;;;;;;9.18;1.80;;;26.00;64.50;;;;;;5152937;27;20110;-71
2022/06/07 02:32:15;;;;;;;10.40;2.30;;;25.90;64.50;;;;;;5155006;27;20415;-71
2022/06/07 02:34:45;;;;;;;13.20;2.28;;;26.00;64.60;;;;;;5155032;27;20105;-71
2022/06/07 02:37:13;;;;;;;6.63;1.90;;;26.00;64.80;;;;;;5154379;27;20122;-71
2022/06/07 02:39:39;;;;;;;9.82;2.20;;;26.00;65.10;;;;;;5154844;27;20473;-71
2022/06/07 02:42:07;;;;;;;11.15;2.22;;;25.90;65.40;;;;;;5154970;27;20034;-71
2022/06/07 02:44:34;;;;;;;7.93;2.10;;;25.80;65.70;;;;;;5154272;27;20027;-71
2022/06/07 02:47:00;;;;;;;;;;;25.70;66.00;;;;;;5154791;27;20031;-71
2022/06/07 02:49:26;;;;;;;7.97;2.10;;;25.80;66.10;;;;;;5154880;27;19925;-71
2022/06/07 02:51:52;;;;;;;11.57;2.13;;;25.70;66.20;;;;;;5154697;27;20026;-71
2022/06/07 02:54:18;;;;;;;9.88;2.15;;;25.70;66.30;;;;;;5152918;27;20026;-71
2022/06/07 02:56:44;;;;;;;7.18;2.00;;;25.60;66.30;;;;;;5154333;27;20042;-72
2022/06/07 02:59:10;;;;;;;7.38;2.10;;;25.60;66.00;;;;;;5154709;27;20023;-71
2022/06/07 03:01:36;;;;;;;9.93;2.30;;;25.60;66.20;;;;;;5155040;27;20098;-71
2022/06/07 03:04:02;;;;;;;7.18;2.38;;;25.60;66.40;;;;;;5154908;27;20041;-72
2022/06/07 03:06:29;;;;;;;8.60;2.50;;;25.50;66.40;;;;;;5153210;27;20033;-72
2022/06/07 03:08:55;;;;;;;8.18;2.20;;;25.50;66.30;;;;;;5155513;27;20105;-72
2022/06/07 03:11:21;;;;;;;6.75;1.85;;;25.40;66.30;;;;;;5154039;27;20054;-72
2022/06/07 03:13:47;;;;;;;12.85;1.90;;;25.40;66.10;;;;;;5154898;27;20084;-72
2022/06/07 03:16:15;;;;;;;10.43;2.00;;;25.40;66.00;;;;;;5154754;27;20023;-72
2022/06/07 03:18:41;;;;;;;9.48;2.20;;;25.30;65.70;;;;;;5154718;27;20102;-72
2022/06/07 03:21:08;;;;;;;9.13;2.22;;;25.40;65.70;;;;;;5154787;27;20130;-72
2022/06/07 03:23:34;;;;;;;9.27;1.92;;;25.30;65.30;;;;;;5153504;27;20022;-72
2022/06/07 03:26:08;;;;;;;8.73;1.85;;;25.30;65.40;;;;;;5155778;27;20022;-72
2022/06/07 03:28:35;;;;;;;6.78;1.80;;;25.20;65.10;;;;;;5155298;27;20101;-72
2022/06/07 03:31:12;;;;;;;8.35;2.13;;;25.20;64.80;;;;;;5155387;27;20030;-72
2022/06/07 03:33:39;;;;;;;7.68;1.80;;;25.10;64.90;;;;;;5155260;27;20071;-72
2022/06/07 03:36:12;;;;;;;12.90;2.20;;;25.10;64.70;;;;;;5155095;27;20457;-72
2022/06/07 03:38:41;;;;;;;10.00;2.10;;;25.00;64.20;;;;;;5155328;27;20014;-72
2022/06/07 03:41:07;;;;;;;6.80;1.95;;;25.00;63.60;;;;;;5155235;27;20050;-72
2022/06/07 03:43:34;;;;;;;;;;;25.10;63.20;;;;;;5155381;27;20026;-72
2022/06/07 03:46:10;;;;;;;;;;;25.10;63.20;;;;;;5154062;27;20335;-72
2022/06/07 03:48:36;;;;;;;10.18;2.25;;;25.10;63.20;;;;;;5155405;27;19914;-71
2022/06/07 03:51:02;;;;;;;8.50;2.17;;;25.00;63.30;;;;;;5155324;27;20073;-72
2022/06/07 03:53:28;;;;;;;12.82;1.80;;;25.10;63.20;;;;;;5155412;27;20050;-72
2022/06/07 03:55:55;;;;;;;8.40;2.10;;;25.20;63.00;;;;;;5155005;27;20057;-72
2022/06/07 03:58:21;;;;;;;13.40;2.03;;;25.30;62.60;;;;;;5154793;27;20045;-72
2022/06/07 04:00:47;;;;;;;11.23;2.17;;;25.30;62.70;;;;;;5154861;27;20043;-72
2022/06/07 04:03:13;;;;;;;9.77;1.88;;;25.40;62.70;;;;;;5155153;27;20083;-71
2022/06/07 04:05:44;;;;;;;11.55;2.55;;;25.40;62.30;;;;;;5154532;27;20423;-72
2022/06/07 04:08:12;;;;;;;13.27;2.72;;;25.50;62.20;;;;;;5154766;27;20030;-72
2022/06/07 04:10:54;;;;;;;8.45;2.13;;;25.60;62.20;;;;;;5154851;27;20574;-72
2022/06/07 04:13:23;;;;;;;6.32;1.77;;;25.70;61.90;;;;;;5154992;27;20427;-72
2022/06/07 04:15:49;;;;;;;7.40;2.00;;;25.80;61.60;;;;;;5153521;27;20027;-72
2022/06/07 04:18:16;;;;;;;10.13;2.00;;;25.80;61.50;;;;;;5155268;27;20026;-72
2022/06/07 04:20:43;;;;;;;8.80;1.65;;;25.90;61.40;;;;;;5155013;27;20071;-72
2022/06/07 04:23:18;;;;;;;5.55;1.70;;;25.90;61.60;;;;;;5154720;27;20026;-72
2022/06/07 04:25:45;;;;;;;6.43;1.52;;;26.00;61.30;;;;;;5155453;27;20368;-72
2022/06/07 04:28:12;;;;;;;8.13;2.08;;;26.00;60.90;;;;;;5154938;27;20060;-72
2022/06/07 04:30:42;;;;;;;10.63;1.60;;;26.10;61.00;;;;;;5154740;27;20029;-72
2022/06/07 04:33:08;;;;;;;6.30;1.38;;;26.10;61.00;;;;;;5155090;27;20018;-72
2022/06/07 04:35:34;;;;;;;7.22;1.30;;;26.20;60.60;;;;;;5154871;27;20099;-72
2022/06/07 04:38:00;;;;;;;10.95;2.17;;;26.20;60.40;;;;;;5154667;27;20054;-72
2022/06/07 04:40:26;;;;;;;10.48;2.03;;;26.30;60.20;;;;;;5154752;27;20027;-72
2022/06/07 04:42:52;;;;;;;7.40;1.55;;;26.30;60.20;;;;;;5154744;27;20035;-72
2022/06/07 04:45:18;;;;;;;7.13;1.80;;;26.30;60.10;;;;;;5154612;27;20061;-72
2022/06/07 04:47:46;;;;;;;7.90;1.85;;;26.40;60.00;;;;;;5154583;27;20066;-72
2022/06/07 04:50:16;;;;;;;6.13;1.63;;;26.50;59.70;;;;;;5153224;27;20374;-72
2022/06/07 04:52:43;;;;;;;6.03;1.65;;;26.60;59.50;;;;;;5154533;27;20050;-72
2022/06/07 04:55:10;;;;;;;9.77;1.70;;;26.70;59.40;;;;;;5154521;27;20042;-72
2022/06/07 04:57:36;;;;;;;9.20;1.92;;;26.70;59.00;;;;;;5154647;27;20023;-72
2022/06/07 05:00:05;;;;;;;7.20;1.65;;;26.90;59.00;;;;;;5155087;27;20023;-72
2022/06/07 05:02:31;;;;;;;9.02;1.58;;;27.20;58.60;;;;;;5154611;27;20211;-72
2022/06/07 05:04:57;;;;;;;9.48;1.80;;;27.40;58.10;;;;;;5154910;27;20079;-72
2022/06/07 05:07:23;;;;;;;9.40;1.50;;;27.90;57.40;;;;;;5154238;27;20467;-72
2022/06/07 05:09:49;;;;;;;13.63;2.22;;;28.40;57.00;;;;;;5153303;27;20351;-72
2022/06/07 05:12:15;;;;;;;11.25;2.08;;;28.80;56.20;;;;;;5152691;27;20331;-72
2022/06/07 05:14:44;;;;;;;9.00;1.63;;;29.10;56.30;;;;;;5154125;27;20470;-73
2022/06/07 05:17:10;;;;;;;7.63;1.52;;;29.30;55.40;;;;;;5153895;27;20063;-72
2022/06/07 05:19:37;;;;;;;6.63;1.60;;;29.60;55.00;;;;;;5154582;27;20130;-72
2022/06/07 05:22:03;;;;;;;15.13;1.90;;;29.90;55.00;;;;;;5152919;27;20117;-73
2022/06/07 05:24:30;;;;;;;6.60;1.45;;;30.30;54.40;;;;;;5154226;27;20019;-72
2022/06/07 05:26:59;;;;;;;9.90;1.77;;;30.80;53.60;;;;;;5153947;27;20027;-71
2022/06/07 05:29:34;;;;;;;7.72;1.50;;;31.30;53.40;;;;;;5153428;27;20466;-73
2022/06/07 05:32:01;;;;;;;7.88;1.85;;;31.80;52.50;;;;;;5153304;27;20507;-73
2022/06/07 05:34:27;;;;;;;9.77;1.88;;;31.70;52.40;;;;;;5155067;27;20030;-73
2022/06/07 05:36:53;;;;;;;8.77;1.70;;;32.20;52.20;;;;;;5156740;27;20047;-73
2022/06/07 05:39:25;;;;;;;11.15;1.50;;;32.40;51.50;;;;;;5157185;27;20034;-73
2022/06/07 05:41:51;;;;;;;6.40;1.50;;;33.40;50.90;;;;;;5157164;27;20029;-73
2022/06/07 05:44:19;;;;;;;8.27;1.60;;;33.90;49.70;;;;;;5157317;27;20022;-73
2022/06/07 05:46:46;;;;;;;8.82;1.98;;;33.80;49.20;;;;;;5156500;27;20498;-73
2022/06/07 05:49:13;;;;;;;6.60;1.67;;;33.60;49.40;;;;;;5156289;27;20095;-73
2022/06/07 05:51:40;;;;;;;11.57;1.70;;;33.50;50.00;;;;;;5155754;27;20090;-72
2022/06/07 05:54:06;;;;;;;12.05;1.63;;;33.90;49.70;;;;;;5156064;27;20023;-73
2022/06/07 05:56:33;;;;;;;9.38;1.67;;;33.70;49.30;;;;;;5154602;27;20034;-72
2022/06/07 05:59:00;;;;;;;8.30;1.60;;;33.60;49.40;;;;;;5154496;27;20023;-71
2022/06/07 06:01:27;;;;;;;10.57;2.00;;;33.70;49.40;;;;;;5155080;27;20023;-73
2022/06/07 06:03:56;;;;;;;8.68;1.80;;;34.50;49.30;;;;;;5155262;27;20068;-72
2022/06/07 06:06:22;;;;;;;11.50;1.95;;;34.80;48.40;;;;;;5155034;27;20115;-72
2022/06/07 06:11:33;;;;;;;8.77;1.77;;;35.00;48.20;;;;;;5155589;27;20119;-72
2022/06/07 06:13:59;;;;;;;11.35;1.90;;;35.20;48.10;;;;;;5154172;27;20441;-72
2022/06/07 06:16:25;;;;;;;13.35;1.85;;;35.90;47.30;;;;;;5156021;27;20027;-73
2022/06/07 06:18:54;;;;;;;9.88;2.00;;;36.00;47.10;;;;;;5154887;27;20027;-73
2022/06/07 06:21:23;;;;;;;13.02;2.00;;;36.60;46.80;;;;;;5156246;27;20052;-72
2022/06/07 06:23:50;;;;;;;7.95;1.85;;;37.00;46.10;;;;;;5155684;27;20145;-72
2022/06/07 06:26:21;;;;;;;7.75;1.73;;;36.90;45.90;;;;;;5155802;27;20511;-72
2022/06/07 06:28:48;;;;;;;12.57;1.92;;;36.50;45.60;;;;;;5156356;27;20026;-72
2022/06/07 06:31:15;;;;;;;19.25;2.30;;;36.60;45.80;;;;;;5156223;27;20296;-72
2022/06/07 06:33:48;;;;;;;10.82;1.75;;;37.20;45.50;;;;;;5155774;27;20339;-73
2022/06/07 06:36:17;;;;;;;15.85;2.25;;;37.50;44.80;;;;;;5155974;27;20023;-73
2022/06/07 06:38:43;;;;;;;12.40;1.60;;;37.40;44.40;;;;;;5156084;27;20489;-73
2022/06/07 06:41:12;;;;;;;7.43;1.50;;;37.50;44.40;;;;;;5156120;27;20022;-73
2022/06/07 06:43:39;;;;;;;11.35;2.00;;;38.20;43.40;;;;;;5155991;27;20108;-72
2022/06/07 06:46:11;;;;;;;10.52;1.70;;;38.40;43.20;;;;;;5156172;27;20030;-73
2022/06/07 06:48:37;;;;;;;7.40;1.65;;;38.20;43.00;;;;;;5155594;27;20056;-73
2022/06/07 06:51:06;;;;;;;8.32;1.48;;;38.00;43.20;;;;;;5155885;27;20030;-73
2022/06/07 06:53:33;;;;;;;10.02;1.67;;;38.20;42.60;;;;;;5154314;27;20019;-73
2022/06/07 06:55:59;;;;;;;11.68;1.83;;;38.20;43.30;;;;;;5155740;27;20022;-73
2022/06/07 06:58:25;;;;;;;11.77;1.70;;;38.30;42.90;;;;;;5155527;27;20462;-72
2022/06/07 07:01:03;;;;;;;5.28;1.50;;;38.10;42.80;;;;;;5155678;27;20027;-72
2022/06/07 07:03:30;;;;;;;8.27;2.13;;;37.40;42.90;;;;;;5155021;27;20019;-72
2022/06/07 07:05:56;;;;;;;10.75;1.63;;;37.00;43.60;;;;;;5155688;27;20027;-72
2022/06/07 07:08:26;;;;;;;9.63;1.70;;;37.40;42.60;;;;;;5155257;27;20022;-73
2022/06/07 07:11:10;;;;;;;13.45;2.15;;;36.80;43.00;;;;;;5153731;27;20123;-72
2022/06/07 07:13:37;;;;;;;12.10;2.08;;;36.20;44.00;;;;;;5155352;27;20023;-73
2022/06/07 07:16:06;;;;;;;15.93;2.88;;;36.30;43.70;;;;;;5155829;27;20102;-73
2022/06/07 07:18:32;;;;;;;6.93;1.80;;;36.20;43.80;;;;;;5155189;27;20051;-73
2022/06/07 07:21:01;;;;;;;7.85;2.15;;;36.10;43.30;;;;;;5155589;27;20058;-73
2022/06/07 07:23:27;;;;;;;12.75;2.17;;;35.70;43.80;;;;;;5154892;27;20102;-73
2022/06/07 07:26:00;;;;;;;;;;;35.40;44.20;;;;;;5155683;27;20058;-73
2022/06/07 07:28:26;;;;;;;11.45;2.42;;;35.00;44.70;;;;;;5155108;27;20346;-73
2022/06/07 07:31:03;;;;;;;12.23;2.17;;;34.60;44.80;;;;;;5155235;27;20027;-73
2022/06/07 07:33:29;;;;;;;10.05;1.85;;;34.50;45.00;;;;;;5155703;27;20110;-73
2022/06/07 07:35:56;;;;;;;;;;;34.80;45.20;;;;;;5155225;27;20022;-72
2022/06/07 07:38:24;;;;;;;10.43;2.20;;;34.70;45.20;;;;;;5153614;27;19954;-73
2022/06/07 07:40:51;;;;;;;13.65;2.38;;;34.90;44.30;;;;;;5154623;27;20067;-73
2022/06/07 07:43:18;;;;;;;8.88;1.70;;;35.00;44.00;;;;;;5154559;27;20022;-74
2022/06/07 07:45:45;;;;;;;7.07;2.63;;;35.10;43.90;;;;;;5154654;27;20058;-73
2022/06/07 07:48:11;;;;;;;8.52;2.10;;;34.80;44.20;;;;;;5152958;27;20031;-73
2022/06/07 07:50:40;;;;;;;14.98;2.17;;;34.70;44.30;;;;;;5153298;27;20018;-73
2022/06/07 07:53:06;;;;;;;11.38;2.20;;;34.70;44.30;;;;;;5151910;27;20018;-72
2022/06/07 07:55:33;;;;;;;12.73;2.38;;;34.50;43.90;;;;;;5153676;27;20031;-72
2022/06/07 07:57:59;;;;;;;5.55;1.60;;;34.30;44.40;;;;;;5153178;27;20015;-72
2022/06/07 08:00:25;;;;;;;;;;;34.30;44.30;;;;;;5153785;27;20023;-72
2022/06/07 08:02:52;;;;;;;9.90;1.70;;;34.30;44.50;;;;;;5153282;27;20011;-72
2022/06/07 08:05:18;;;;;;;7.63;1.70;;;34.80;44.80;;;;;;5152992;27;20078;-72
2022/06/07 08:07:44;;;;;;;9.85;2.47;;;35.20;44.60;;;;;;5153027;27;20062;-72
2022/06/07 08:10:10;;;;;;;;;;;34.70;43.70;;;;;;5153239;27;20315;-72
2022/06/07 08:12:36;;;;;;;8.35;1.45;;;34.70;44.20;;;;;;5152643;27;19903;-72
2022/06/07 08:15:02;;;;;;;;;;;34.50;44.20;;;;;;5153836;27;20056;-73
2022/06/07 08:17:29;;;;;;;8.45;2.00;;;34.70;44.80;;;;;;5152669;27;20001;-73
2022/06/07 08:19:55;;;;;;;12.88;1.85;;;34.80;43.70;;;;;;5154128;27;20079;-72
2022/06/07 08:22:21;;;;;;;;;;;34.80;43.90;;;;;;5154427;27;20026;-72
2022/06/07 08:24:47;;;;;;;9.65;1.75;;;34.90;43.80;;;;;;5154204;27;20002;-73
2022/06/07 08:27:14;;;;;;;8.07;1.77;;;34.80;43.70;;;;;;5153813;27;20058;-73
2022/06/07 08:29:41;;;;;;;14.98;1.83;;;34.80;44.20;;;;;;5153824;27;20019;-73
2022/06/07 08:32:07;;;;;;;11.43;1.90;;;35.20;44.50;;;;;;5154094;27;20023;-73
2022/06/07 08:37:34;;;;;;;8.35;1.88;;;35.70;43.50;;;;;;5153638;27;20111;-73
2022/06/07 08:40:02;;;;;;;11.68;1.90;;;35.70;43.00;;;;;;5154446;27;20390;-73
2022/06/07 08:42:38;;;;;;;11.52;2.13;;;35.50;43.60;;;;;;5153624;27;20026;-74
2022/06/07 08:45:16;;;;;;;11.63;1.83;;;35.90;43.60;;;;;;5154068;27;20539;-73
2022/06/07 08:47:49;;;;;;;12.32;2.10;;;36.20;43.50;;;;;;5153787;27;20034;-74
2022/06/07 08:50:22;;;;;;;13.00;1.92;;;36.10;42.90;;;;;;5153432;27;20015;-73
2022/06/07 08:52:53;;;;;;;14.05;1.90;;;35.80;42.40;;;;;;5154036;27;20023;-72
2022/06/07 08:55:34;;;;;;;11.55;1.90;;;35.20;43.20;;;;;;5153368;27;20011;-72
2022/06/07 08:58:23;;;;;;;7.90;1.65;;;35.20;44.00;;;;;;5153535;27;20057;-73
2022/06/07 09:00:52;;;;;;;10.95;1.95;;;35.50;43.40;;;;;;5151838;27;20118;-73
2022/06/07 09:03:35;;;;;;;9.95;2.30;;;36.00;43.60;;;;;;5151873;27;20026;-73
2022/06/07 09:06:04;;;;;;;17.55;2.30;;;36.10;42.20;;;;;;5153530;27;20366;-73
2022/06/07 09:08:35;;;;;;;14.80;2.25;;;35.60;43.00;;;;;;5154520;27;20037;-73
2022/06/07 09:13:54;;;;;;;10.25;1.75;;;36.00;43.20;;;;;;5157741;27;20185;-73
2022/06/07 09:16:20;;;;;;;13.63;1.95;;;36.30;42.90;;;;;;5155735;27;20027;-73
2022/06/07 09:18:50;;;;;;;14.95;2.30;;;36.10;42.90;;;;;;5157564;27;20018;-73
2022/06/07 09:21:30;;;;;;;17.90;2.70;;;36.10;45.20;;;;;;5157974;27;20018;-73
2022/06/07 09:23:57;;;;;;;14.95;2.70;;;36.10;49.90;;;;;;5157623;27;20391;-73
2022/06/07 09:26:36;;;;;;;25.95;3.40;;;36.20;50.80;;;;;;5155627;27;20103;-73
2022/06/07 09:29:13;;;;;;;13.95;2.13;;;36.40;50.70;;;;;;5156768;27;20109;-73
2022/06/07 09:31:41;;;;;;;12.40;2.47;;;36.30;50.80;;;;;;5157127;27;20019;-73
2022/06/07 09:34:15;;;;;;;12.95;2.10;;;36.50;49.80;;;;;;5155677;27;20031;-74
2022/06/07 09:36:46;;;;;;;14.43;2.78;;;36.60;49.20;;;;;;5155613;27;20043;-74
2022/06/07 09:39:25;;;;;;;15.43;3.03;;;36.90;49.00;;;;;;5157440;27;20027;-74
2022/06/07 09:42:18;;;;;;;15.52;2.78;;;36.90;48.40;;;;;;5157276;27;20034;-73
2022/06/07 09:45:11;;;;;;;9.90;2.20;;;36.90;49.00;;;;;;5157085;27;20434;-73
2022/06/07 09:47:37;;;;;;;13.00;2.25;;;36.60;47.60;;;;;;5157117;27;20080;-74
2022/06/07 09:50:32;;;;;;;8.15;1.90;;;36.50;48.80;;;;;;5157001;27;20023;-74
2022/06/07 09:53:06;;;;;;;;;;;36.30;48.90;;;;;;5153754;27;20149;-73
2022/06/07 09:55:32;;;;;;;11.43;2.10;;;36.10;49.70;;;;;;5155957;27;19960;-73
2022/06/07 09:58:05;;;;;;;13.82;1.90;;;36.00;50.50;;;;;;5155764;27;20098;-73
2022/06/07 10:00:43;;;;;;;17.08;2.10;;;36.00;51.40;;;;;;5156462;27;20026;-73
2022/06/07 10:03:34;;;;;;;10.82;2.60;;;35.80;52.20;;;;;;5155949;27;20027;-73
2022/06/07 10:06:07;;;;;;;12.95;2.50;;;35.70;52.00;;;;;;5155481;27;20053;-73
2022/06/07 10:11:53;;;;;;;14.05;2.05;;;35.30;52.80;;;;;;5156168;27;20034;-73
2022/06/07 10:14:18;;;;;;;;;;;35.30;52.90;;;;;;5156707;27;20039;-73
2022/06/07 10:16:58;;;;;;;12.15;2.47;;;35.30;52.20;;;;;;5156311;27;20364;-73
2022/06/07 10:19:54;;;;;;;14.70;2.60;;;35.30;52.40;;;;;;5155938;27;20106;-73
2022/06/07 10:22:43;;;;;;;11.13;2.42;;;35.20;52.10;;;;;;5156194;27;20038;-73
2022/06/07 10:25:33;;;;;;;14.73;2.45;;;35.30;52.00;;;;;;5156266;27;20067;-73
2022/06/07 10:28:12;;;;;;;9.60;2.00;;;35.00;52.50;;;;;;5154274;27;20031;-73
2022/06/07 10:31:00;;;;;;;13.60;2.53;;;34.80;52.80;;;;;;5154368;27;20125;-73
2022/06/07 10:33:38;;;;;;;16.92;2.40;;;34.90;52.20;;;;;;5155550;27;20026;-73
2022/06/07 10:36:13;;;;;;;12.38;2.47;;;34.40;52.70;;;;;;5155836;27;20027;-72
2022/06/07 10:38:44;;;;;;;10.70;2.73;;;34.40;53.40;;;;;;5155776;27;20454;-73
2022/06/07 10:41:28;;;;;;;14.57;4.47;;;34.40;52.60;;;;;;5156045;27;20022;-72
2022/06/07 10:44:06;;;;;;;10.40;4.60;;;34.60;51.50;;;;;;5156455;27;20049;-72
2022/06/07 10:46:36;;;;;;;25.55;4.97;;;34.70;50.70;;;;;;5155678;27;20015;-73
2022/06/07 10:49:43;;;;;;;18.33;4.95;;;34.90;50.50;;;;;;5155261;27;20026;-73
2022/06/07 10:52:21;;;;;;;13.02;3.55;;;35.20;50.10;;;;;;5154829;27;20019;-73
2022/06/07 10:55:03;;;;;;;11.85;3.88;;;35.30;49.50;;;;;;5155517;27;20023;-74
2022/06/07 10:57:47;;;;;;;14.63;3.15;;;35.40;48.50;;;;;;5155665;27;20023;-73
2022/06/07 11:00:25;;;;;;;15.60;2.67;;;35.50;46.20;;;;;;5154998;27;20416;-73
2022/06/07 11:03:31;;;;;;;11.63;2.13;;;35.70;46.60;;;;;;5154224;27;20433;-73
2022/06/07 11:09:35;;;;;;;13.67;2.17;;;35.50;44.40;;;;;;5155411;27;20534;-73
2022/06/07 11:12:11;;;;;;;16.48;2.47;;;35.10;44.40;;;;;;5145783;27;20268;-73
2022/06/07 11:15:04;;;;;;;41.65;3.35;;;35.20;45.30;;;;;;5155257;27;20022;-73
2022/06/07 11:17:49;;;;;;;12.48;2.38;;;34.90;45.30;;;;;;5155719;27;20038;-73
2022/06/07 11:20:24;;;;;;;12.88;2.35;;;35.00;46.40;;;;;;5155628;27;20102;-73
2022/06/07 11:23:13;;;;;;;11.02;2.08;;;35.00;47.30;;;;;;5155501;27;20114;-73
2022/06/07 11:26:02;;;;;;;17.10;2.33;;;34.90;48.70;;;;;;5155100;27;20031;-73
2022/06/07 11:28:33;;;;;;;7.07;1.95;;;34.80;49.50;;;;;;5155252;27;20030;-73
2022/06/07 11:31:21;;;;;;;7.18;1.85;;;34.60;49.00;;;;;;5154796;27;20019;-73
2022/06/07 11:33:53;;;;;;;10.25;2.00;;;34.70;48.20;;;;;;5153700;27;20027;-73
2022/06/07 11:36:25;;;;;;;9.48;2.13;;;34.90;49.20;;;;;;5154924;27;20091;-73
2022/06/07 11:38:55;;;;;;;8.27;2.00;;;35.00;49.10;;;;;;5155044;27;20015;-73
2022/06/07 11:41:39;;;;;;;13.43;2.13;;;35.00;49.00;;;;;;5155313;27;20110;-73
2022/06/07 11:44:08;;;;;;;8.15;2.10;;;34.80;49.70;;;;;;5154966;27;20026;-73
2022/06/07 11:46:34;;;;;;;11.20;1.90;;;34.90;50.60;;;;;;5153451;27;20087;-73
2022/06/07 11:49:18;;;;;;;;;;;35.10;51.00;;;;;;5154808;27;20019;-73
2022/06/07 11:52:11;;;;;;;7.03;1.92;;;35.20;51.30;;;;;;5153996;27;19907;-74
2022/06/07 11:54:51;;;;;;;6.38;1.77;;;35.20;51.80;;;;;;5154878;27;20019;-74
2022/06/07 11:57:32;;;;;;;9.75;2.22;;;35.30;51.70;;;;;;5153217;27;20113;-74
2022/06/07 12:00:22;;;;;;;7.53;1.95;;;35.00;52.50;;;;;;5154885;27;20057;-73
2022/06/07 12:03:00;;;;;;;14.18;2.60;;;35.10;52.70;;;;;;5153819;27;20023;-74
2022/06/07 12:05:49;;;;;;;6.90;2.00;;;35.20;52.90;;;;;;5154615;27;20027;-73
2022/06/07 12:08:32;;;;;;;8.48;2.13;;;35.30;53.30;;;;;;5154875;27;20378;-73
2022/06/07 12:11:23;;;;;;;10.52;2.13;;;35.10;51.90;;;;;;5155338;27;20099;-73
2022/06/07 12:14:02;;;;;;;9.35;1.65;;;35.10;52.00;;;;;;5153397;27;20554;-73
2022/06/07 12:16:59;;;;;;;8.95;1.90;;;35.20;51.60;;;;;;5154749;27;20029;-74
2022/06/07 12:19:29;;;;;;;8.98;2.08;;;35.30;52.30;;;;;;5155333;27;20054;-74
2022/06/07 12:21:58;;;;;;;9.57;2.17;;;35.40;52.30;;;;;;5153627;27;20030;-73
2022/06/07 12:24:25;;;;;;;11.82;2.33;;;35.50;52.10;;;;;;5155228;27;20059;-73
2022/06/07 12:26:51;;;;;;;8.98;1.95;;;35.60;52.20;;;;;;5154680;27;20034;-74
2022/06/07 12:29:28;;;;;;;9.68;1.90;;;35.70;52.00;;;;;;5154172;27;20049;-73
2022/06/07 12:32:06;;;;;;;11.52;1.88;;;35.80;51.00;;;;;;5155289;27;20022;-75
2022/06/07 12:34:35;;;;;;;7.38;1.88;;;35.60;51.10;;;;;;5155473;27;20027;-74
2022/06/07 12:37:19;;;;;;;8.35;1.75;;;35.30;51.30;;;;;;5154939;27;20047;-74
2022/06/07 12:39:57;;;;;;;7.80;1.70;;;34.80;51.10;;;;;;5155428;27;20019;-74
2022/06/07 12:42:27;;;;;;;4.47;1.65;;;34.90;52.00;;;;;;5154984;27;20026;-73
2022/06/07 12:45:18;;;;;;;7.85;1.90;;;35.10;51.40;;;;;;5159251;27;20489;-74
2022/06/07 12:47:46;;;;;;;7.13;2.00;;;35.40;50.70;;;;;;5159307;27;20083;-74
2022/06/07 12:50:22;;;;;;;8.18;2.30;;;35.50;50.50;;;;;;5158786;27;20057;-74
2022/06/07 12:52:52;;;;;;;;;;;35.50;50.90;;;;;;5159182;27;20570;-74
2022/06/07 12:55:27;;;;;;;6.45;1.95;;;35.50;50.70;;;;;;5157928;27;19907;-72
2022/06/07 12:58:00;;;;;;;8.70;1.90;;;35.60;50.70;;;;;;5158274;27;20019;-72
2022/06/07 13:00:34;;;;;;;8.02;1.95;;;35.50;50.50;;;;;;5157320;27;20034;-72
2022/06/07 13:03:13;;;;;;;4.38;2.00;;;35.50;50.80;;;;;;5156529;27;20022;-73
2022/06/07 13:05:39;;;;;;;11.35;2.13;;;35.60;50.70;;;;;;5158047;27;20451;-73
2022/06/07 13:08:24;;;;;;;9.30;1.80;;;35.80;50.60;;;;;;5157306;27;20080;-73
2022/06/07 13:10:50;;;;;;;11.10;1.83;;;36.00;49.90;;;;;;5158126;27;20366;-72
2022/06/07 13:13:35;;;;;;;9.25;1.88;;;35.90;49.90;;;;;;5158125;27;20267;-72
2022/06/07 13:16:08;;;;;;;;;;;35.80;50.10;;;;;;5158714;27;20062;-73
2022/06/07 13:18:55;;;;;;;7.05;1.83;;;35.80;50.50;;;;;;5158500;27;19903;-72
2022/06/07 13:21:29;;;;;;;8.70;1.67;;;35.80;50.90;;;;;;5158301;27;20117;-73
2022/06/07 13:23:58;;;;;;;11.43;2.50;;;35.80;51.40;;;;;;5158035;27;20565;-72
2022/06/07 13:26:40;;;;;;;19.52;1.88;;;35.80;51.50;;;;;;5158504;27;20022;-72
2022/06/07 13:29:17;;;;;;;9.13;2.03;;;35.70;50.00;;;;;;5158407;27;20102;-72